sensor_id;sensor_type;location;lat;lon;timestamp;P1;durP1;ratioP1;P2;durP2;ratioP2
74233;SDS011;62591;55.764;37.718;2023-03-20T00:02:17;19.75;;;9.38;;
74233;SDS011;62591;55.764;37.718;2023-03-20T00:04:47;19.30;;;10.32;;
74233;SDS011;62591;55.764;37.718;2023-03-20T00:07:16;21.58;;;11.10;;
74233;SDS011;62591;55.764;37.718;2023-03-20T00:09:45;20.27;;;9.55;;
74233;SDS011;62591;55.764;37.718;2023-03-20T00:12:17;20.73;;;9.98;;
74233;SDS011;62591;55.764;37.718;2023-03-20T00:14:50;22.05;;;10.18;;
74233;SDS011;62591;55.764;37.718;2023-03-20T00:17:19;16.50;;;9.35;;
74233;SDS011;62591;55.764;37.718;2023-03-20T00:19:48;21.70;;;9.68;;
74233;SDS011;62591;55.764;37.718;2023-03-20T00:22:17;20.08;;;9.45;;
74233;SDS011;62591;55.764;37.718;2023-03-20T00:24:45;25.52;;;10.32;;
74233;SDS011;62591;55.764;37.718;2023-03-20T00:27:14;24.30;;;9.85;;
74233;SDS011;62591;55.764;37.718;2023-03-20T00:29:46;18.85;;;9.93;;
74233;SDS011;62591;55.764;37.718;2023-03-20T00:32:15;19.48;;;9.18;;
74233;SDS011;62591;55.764;37.718;2023-03-20T00:34:44;17.80;;;9.55;;
74233;SDS011;62591;55.764;37.718;2023-03-20T00:37:12;18.50;;;9.55;;
74233;SDS011;62591;55.764;37.718;2023-03-20T00:39:41;22.20;;;9.25;;
74233;SDS011;62591;55.764;37.718;2023-03-20T00:42:11;22.08;;;9.68;;
74233;SDS011;62591;55.764;37.718;2023-03-20T00:44:49;17.88;;;9.15;;
74233;SDS011;62591;55.764;37.718;2023-03-20T00:47:22;20.45;;;10.27;;
74233;SDS011;62591;55.764;37.718;2023-03-20T00:49:53;19.85;;;8.48;;
74233;SDS011;62591;55.764;37.718;2023-03-20T00:52:24;22.15;;;9.18;;
74233;SDS011;62591;55.764;37.718;2023-03-20T00:54:53;16.48;;;8.90;;
74233;SDS011;62591;55.764;37.718;2023-03-20T00:57:22;19.92;;;10.15;;
74233;SDS011;62591;55.764;37.718;2023-03-20T00:59:55;23.23;;;8.70;;
74233;SDS011;62591;55.764;37.718;2023-03-20T01:02:29;21.98;;;9.75;;
74233;SDS011;62591;55.764;37.718;2023-03-20T01:04:58;20.70;;;9.73;;
74233;SDS011;62591;55.764;37.718;2023-03-20T01:07:29;16.55;;;8.68;;
74233;SDS011;62591;55.764;37.718;2023-03-20T01:09:57;21.60;;;9.48;;
74233;SDS011;62591;55.764;37.718;2023-03-20T01:12:26;22.00;;;9.45;;
74233;SDS011;62591;55.764;37.718;2023-03-20T01:14:56;20.08;;;9.05;;
74233;SDS011;62591;55.764;37.718;2023-03-20T01:17:26;22.38;;;10.20;;
74233;SDS011;62591;55.764;37.718;2023-03-20T01:19:55;19.52;;;9.68;;
74233;SDS011;62591;55.764;37.718;2023-03-20T01:22:24;19.77;;;10.05;;
74233;SDS011;62591;55.764;37.718;2023-03-20T01:24:52;21.25;;;9.65;;
74233;SDS011;62591;55.764;37.718;2023-03-20T01:27:20;22.73;;;11.00;;
74233;SDS011;62591;55.764;37.718;2023-03-20T01:29:49;21.50;;;9.73;;
74233;SDS011;62591;55.764;37.718;2023-03-20T01:32:19;28.88;;;11.40;;
74233;SDS011;62591;55.764;37.718;2023-03-20T01:34:50;25.27;;;11.00;;
74233;SDS011;62591;55.764;37.718;2023-03-20T01:37:22;22.13;;;10.15;;
74233;SDS011;62591;55.764;37.718;2023-03-20T01:39:55;20.13;;;10.73;;
74233;SDS011;62591;55.764;37.718;2023-03-20T01:42:25;23.85;;;10.73;;
74233;SDS011;62591;55.764;37.718;2023-03-20T01:44:54;26.08;;;11.23;;
74233;SDS011;62591;55.764;37.718;2023-03-20T01:47:24;22.75;;;10.63;;
74233;SDS011;62591;55.764;37.718;2023-03-20T01:52:54;21.05;;;10.65;;
74233;SDS011;62591;55.764;37.718;2023-03-20T01:55:31;24.25;;;11.15;;
74233;SDS011;62591;55.764;37.718;2023-03-20T01:58:02;25.55;;;11.43;;
74233;SDS011;62591;55.764;37.718;2023-03-20T02:00:34;24.88;;;11.10;;
74233;SDS011;62591;55.764;37.718;2023-03-20T02:03:10;21.35;;;11.65;;
74233;SDS011;62591;55.764;37.718;2023-03-20T02:05:58;29.98;;;11.20;;
74233;SDS011;62591;55.764;37.718;2023-03-20T02:08:47;23.13;;;11.02;;
74233;SDS011;62591;55.764;37.718;2023-03-20T02:11:18;20.77;;;10.60;;
74233;SDS011;62591;55.764;37.718;2023-03-20T02:13:49;24.73;;;10.90;;
74233;SDS011;62591;55.764;37.718;2023-03-20T02:16:21;26.08;;;11.52;;
74233;SDS011;62591;55.764;37.718;2023-03-20T02:19:16;24.98;;;11.52;;
74233;SDS011;62591;55.764;37.718;2023-03-20T02:28:13;23.98;;;11.02;;
74233;SDS011;62591;55.764;37.718;2023-03-20T02:31:12;23.95;;;11.68;;
74233;SDS011;62591;55.764;37.718;2023-03-20T02:34:15;29.25;;;13.13;;
74233;SDS011;62591;55.764;37.718;2023-03-20T02:40:36;34.25;;;16.98;;
74233;SDS011;62591;55.764;37.718;2023-03-20T02:43:13;31.33;;;14.05;;
74233;SDS011;62591;55.764;37.718;2023-03-20T02:45:51;30.27;;;13.45;;
74233;SDS011;62591;55.764;37.718;2023-03-20T02:48:30;23.95;;;13.35;;
74233;SDS011;62591;55.764;37.718;2023-03-20T02:51:07;28.98;;;12.85;;
74233;SDS011;62591;55.764;37.718;2023-03-20T02:53:42;26.55;;;12.73;;
74233;SDS011;62591;55.764;37.718;2023-03-20T02:56:23;27.75;;;12.60;;
74233;SDS011;62591;55.764;37.718;2023-03-20T02:59:01;30.73;;;13.38;;
74233;SDS011;62591;55.764;37.718;2023-03-20T03:01:39;26.60;;;13.18;;
74233;SDS011;62591;55.764;37.718;2023-03-20T03:04:11;24.00;;;12.57;;
74233;SDS011;62591;55.764;37.718;2023-03-20T03:09:16;24.58;;;12.65;;
74233;SDS011;62591;55.764;37.718;2023-03-20T03:11:50;27.63;;;13.30;;
74233;SDS011;62591;55.764;37.718;2023-03-20T03:17:13;28.58;;;13.35;;
74233;SDS011;62591;55.764;37.718;2023-03-20T03:19:44;24.05;;;11.98;;
74233;SDS011;62591;55.764;37.718;2023-03-20T03:22:16;26.30;;;12.43;;
74233;SDS011;62591;55.764;37.718;2023-03-20T03:24:47;28.13;;;13.25;;
74233;SDS011;62591;55.764;37.718;2023-03-20T03:27:20;26.33;;;12.68;;
74233;SDS011;62591;55.764;37.718;2023-03-20T03:29:53;25.42;;;12.48;;
74233;SDS011;62591;55.764;37.718;2023-03-20T03:32:27;29.23;;;12.85;;
74233;SDS011;62591;55.764;37.718;2023-03-20T03:34:59;25.77;;;12.32;;
74233;SDS011;62591;55.764;37.718;2023-03-20T03:37:31;25.88;;;12.10;;
74233;SDS011;62591;55.764;37.718;2023-03-20T03:40:11;27.15;;;12.75;;
74233;SDS011;62591;55.764;37.718;2023-03-20T03:42:51;28.52;;;12.43;;
74233;SDS011;62591;55.764;37.718;2023-03-20T03:45:23;29.05;;;13.65;;
74233;SDS011;62591;55.764;37.718;2023-03-20T03:47:58;31.80;;;12.88;;
74233;SDS011;62591;55.764;37.718;2023-03-20T03:50:32;28.40;;;13.63;;
74233;SDS011;62591;55.764;37.718;2023-03-20T03:53:05;29.65;;;13.02;;
74233;SDS011;62591;55.764;37.718;2023-03-20T03:55:38;29.80;;;13.32;;
74233;SDS011;62591;55.764;37.718;2023-03-20T03:58:14;27.38;;;12.75;;
74233;SDS011;62591;55.764;37.718;2023-03-20T04:00:48;30.00;;;13.50;;
74233;SDS011;62591;55.764;37.718;2023-03-20T04:03:20;28.65;;;12.32;;
74233;SDS011;62591;55.764;37.718;2023-03-20T04:05:51;31.27;;;14.50;;
74233;SDS011;62591;55.764;37.718;2023-03-20T04:08:22;26.30;;;13.25;;
74233;SDS011;62591;55.764;37.718;2023-03-20T04:10:51;29.95;;;13.38;;
74233;SDS011;62591;55.764;37.718;2023-03-20T04:13:22;24.27;;;12.10;;
74233;SDS011;62591;55.764;37.718;2023-03-20T04:15:51;27.85;;;12.60;;
74233;SDS011;62591;55.764;37.718;2023-03-20T04:18:20;25.05;;;11.70;;
74233;SDS011;62591;55.764;37.718;2023-03-20T04:20:48;26.83;;;11.77;;
74233;SDS011;62591;55.764;37.718;2023-03-20T04:23:17;23.10;;;12.32;;
74233;SDS011;62591;55.764;37.718;2023-03-20T04:25:46;27.15;;;11.75;;
74233;SDS011;62591;55.764;37.718;2023-03-20T04:28:15;26.70;;;11.25;;
74233;SDS011;62591;55.764;37.718;2023-03-20T04:30:56;23.10;;;11.30;;
74233;SDS011;62591;55.764;37.718;2023-03-20T04:33:32;24.25;;;11.85;;
74233;SDS011;62591;55.764;37.718;2023-03-20T04:36:30;22.90;;;11.30;;
74233;SDS011;62591;55.764;37.718;2023-03-20T04:39:02;28.77;;;12.13;;
74233;SDS011;62591;55.764;37.718;2023-03-20T04:41:30;20.02;;;10.65;;
74233;SDS011;62591;55.764;37.718;2023-03-20T04:43:59;25.45;;;11.32;;
74233;SDS011;62591;55.764;37.718;2023-03-20T04:46:31;26.83;;;11.02;;
74233;SDS011;62591;55.764;37.718;2023-03-20T04:49:05;26.58;;;10.85;;
74233;SDS011;62591;55.764;37.718;2023-03-20T04:51:34;26.48;;;10.93;;
74233;SDS011;62591;55.764;37.718;2023-03-20T04:54:04;25.10;;;11.18;;
74233;SDS011;62591;55.764;37.718;2023-03-20T04:56:32;24.65;;;10.73;;
74233;SDS011;62591;55.764;37.718;2023-03-20T04:59:14;23.17;;;10.30;;
74233;SDS011;62591;55.764;37.718;2023-03-20T05:01:44;23.52;;;10.55;;
74233;SDS011;62591;55.764;37.718;2023-03-20T05:04:13;22.08;;;9.98;;
74233;SDS011;62591;55.764;37.718;2023-03-20T05:06:41;19.88;;;10.05;;
74233;SDS011;62591;55.764;37.718;2023-03-20T05:09:15;16.80;;;8.55;;
74233;SDS011;62591;55.764;37.718;2023-03-20T05:11:45;18.83;;;8.75;;
74233;SDS011;62591;55.764;37.718;2023-03-20T05:14:32;17.73;;;8.48;;
74233;SDS011;62591;55.764;37.718;2023-03-20T05:17:21;15.70;;;7.60;;
74233;SDS011;62591;55.764;37.718;2023-03-20T05:20:22;15.98;;;8.32;;
74233;SDS011;62591;55.764;37.718;2023-03-20T05:23:08;25.83;;;9.80;;
74233;SDS011;62591;55.764;37.718;2023-03-20T05:25:48;15.65;;;8.93;;
74233;SDS011;62591;55.764;37.718;2023-03-20T05:28:26;13.82;;;7.80;;
74233;SDS011;62591;55.764;37.718;2023-03-20T05:31:15;13.75;;;6.93;;
74233;SDS011;62591;55.764;37.718;2023-03-20T05:34:15;12.00;;;7.45;;
74233;SDS011;62591;55.764;37.718;2023-03-20T05:36:58;14.25;;;7.13;;
74233;SDS011;62591;55.764;37.718;2023-03-20T05:39:35;17.10;;;7.28;;
74233;SDS011;62591;55.764;37.718;2023-03-20T05:42:14;14.77;;;7.40;;
74233;SDS011;62591;55.764;37.718;2023-03-20T05:45:01;13.88;;;7.82;;
74233;SDS011;62591;55.764;37.718;2023-03-20T05:47:59;13.30;;;7.53;;
74233;SDS011;62591;55.764;37.718;2023-03-20T05:50:41;14.40;;;7.40;;
74233;SDS011;62591;55.764;37.718;2023-03-20T05:53:09;14.32;;;7.88;;
74233;SDS011;62591;55.764;37.718;2023-03-20T05:55:58;21.50;;;8.43;;
74233;SDS011;62591;55.764;37.718;2023-03-20T05:58:38;13.45;;;7.70;;
74233;SDS011;62591;55.764;37.718;2023-03-20T06:01:14;18.48;;;8.05;;
74233;SDS011;62591;55.764;37.718;2023-03-20T06:04:05;14.73;;;7.03;;
74233;SDS011;62591;55.764;37.718;2023-03-20T06:06:55;16.27;;;8.02;;
74233;SDS011;62591;55.764;37.718;2023-03-20T06:09:24;16.70;;;7.18;;
74233;SDS011;62591;55.764;37.718;2023-03-20T06:11:53;14.38;;;7.68;;
74233;SDS011;62591;55.764;37.718;2023-03-20T06:14:22;19.05;;;8.18;;
74233;SDS011;62591;55.764;37.718;2023-03-20T06:16:56;16.13;;;7.35;;
74233;SDS011;62591;55.764;37.718;2023-03-20T06:19:26;19.98;;;8.75;;
74233;SDS011;62591;55.764;37.718;2023-03-20T06:21:57;17.88;;;8.52;;
74233;SDS011;62591;55.764;37.718;2023-03-20T06:24:26;17.77;;;8.52;;
74233;SDS011;62591;55.764;37.718;2023-03-20T06:26:55;16.73;;;8.98;;
74233;SDS011;62591;55.764;37.718;2023-03-20T06:29:25;21.58;;;8.68;;
74233;SDS011;62591;55.764;37.718;2023-03-20T06:32:05;21.77;;;8.15;;
74233;SDS011;62591;55.764;37.718;2023-03-20T06:34:35;19.45;;;9.73;;
74233;SDS011;62591;55.764;37.718;2023-03-20T06:37:12;20.13;;;9.02;;
74233;SDS011;62591;55.764;37.718;2023-03-20T06:39:42;21.70;;;9.02;;
74233;SDS011;62591;55.764;37.718;2023-03-20T06:42:12;23.23;;;9.40;;
74233;SDS011;62591;55.764;37.718;2023-03-20T06:44:44;21.70;;;9.73;;
74233;SDS011;62591;55.764;37.718;2023-03-20T06:47:37;22.13;;;9.68;;
74233;SDS011;62591;55.764;37.718;2023-03-20T06:50:07;20.63;;;9.45;;
74233;SDS011;62591;55.764;37.718;2023-03-20T06:52:44;19.98;;;9.55;;
74233;SDS011;62591;55.764;37.718;2023-03-20T06:55:36;19.25;;;8.82;;
74233;SDS011;62591;55.764;37.718;2023-03-20T06:58:05;20.85;;;10.07;;
74233;SDS011;62591;55.764;37.718;2023-03-20T07:00:35;19.80;;;9.63;;
74233;SDS011;62591;55.764;37.718;2023-03-20T07:03:06;18.80;;;9.30;;
74233;SDS011;62591;55.764;37.718;2023-03-20T07:05:35;16.33;;;8.68;;
74233;SDS011;62591;55.764;37.718;2023-03-20T07:08:09;18.13;;;9.45;;
74233;SDS011;62591;55.764;37.718;2023-03-20T07:10:39;21.35;;;9.02;;
74233;SDS011;62591;55.764;37.718;2023-03-20T07:13:08;20.67;;;9.25;;
74233;SDS011;62591;55.764;37.718;2023-03-20T07:15:39;22.65;;;9.68;;
74233;SDS011;62591;55.764;37.718;2023-03-20T07:18:28;19.13;;;7.78;;
74233;SDS011;62591;55.764;37.718;2023-03-20T07:20:58;17.27;;;8.20;;
74233;SDS011;62591;55.764;37.718;2023-03-20T07:26:01;23.08;;;7.38;;
74233;SDS011;62591;55.764;37.718;2023-03-20T07:28:32;16.30;;;8.25;;
74233;SDS011;62591;55.764;37.718;2023-03-20T07:31:11;19.35;;;7.18;;
74233;SDS011;62591;55.764;37.718;2023-03-20T07:33:48;18.90;;;7.18;;
74233;SDS011;62591;55.764;37.718;2023-03-20T07:36:17;18.45;;;6.47;;
74233;SDS011;62591;55.764;37.718;2023-03-20T07:38:49;16.75;;;6.70;;
74233;SDS011;62591;55.764;37.718;2023-03-20T07:41:19;18.83;;;7.82;;
74233;SDS011;62591;55.764;37.718;2023-03-20T07:43:57;18.25;;;7.32;;
74233;SDS011;62591;55.764;37.718;2023-03-20T07:46:46;15.55;;;7.47;;
74233;SDS011;62591;55.764;37.718;2023-03-20T07:49:15;19.45;;;7.15;;
74233;SDS011;62591;55.764;37.718;2023-03-20T07:51:45;14.13;;;6.75;;
74233;SDS011;62591;55.764;37.718;2023-03-20T07:54:16;22.17;;;7.97;;
74233;SDS011;62591;55.764;37.718;2023-03-20T07:56:45;16.25;;;8.07;;
74233;SDS011;62591;55.764;37.718;2023-03-20T07:59:13;26.80;;;12.23;;
74233;SDS011;62591;55.764;37.718;2023-03-20T08:01:42;39.20;;;22.73;;
74233;SDS011;62591;55.764;37.718;2023-03-20T08:04:11;31.65;;;17.27;;
74233;SDS011;62591;55.764;37.718;2023-03-20T08:06:45;21.58;;;10.23;;
74233;SDS011;62591;55.764;37.718;2023-03-20T08:09:15;20.30;;;10.18;;
74233;SDS011;62591;55.764;37.718;2023-03-20T08:11:45;24.85;;;9.68;;
74233;SDS011;62591;55.764;37.718;2023-03-20T08:14:13;19.25;;;9.00;;
74233;SDS011;62591;55.764;37.718;2023-03-20T08:16:42;20.00;;;8.77;;
74233;SDS011;62591;55.764;37.718;2023-03-20T08:19:10;19.75;;;8.65;;
74233;SDS011;62591;55.764;37.718;2023-03-20T08:21:39;25.70;;;9.82;;
74233;SDS011;62591;55.764;37.718;2023-03-20T08:24:07;15.32;;;7.53;;
74233;SDS011;62591;55.764;37.718;2023-03-20T08:26:38;19.80;;;6.85;;
74233;SDS011;62591;55.764;37.718;2023-03-20T08:29:07;15.95;;;6.60;;
74233;SDS011;62591;55.764;37.718;2023-03-20T08:31:36;19.33;;;7.15;;
74233;SDS011;62591;55.764;37.718;2023-03-20T08:34:05;14.20;;;6.93;;
74233;SDS011;62591;55.764;37.718;2023-03-20T08:36:33;15.80;;;7.10;;
74233;SDS011;62591;55.764;37.718;2023-03-20T08:39:02;22.60;;;7.30;;
74233;SDS011;62591;55.764;37.718;2023-03-20T08:41:32;17.73;;;7.25;;
74233;SDS011;62591;55.764;37.718;2023-03-20T08:44:02;15.18;;;6.95;;
74233;SDS011;62591;55.764;37.718;2023-03-20T08:46:30;14.88;;;7.20;;
74233;SDS011;62591;55.764;37.718;2023-03-20T08:48:59;24.67;;;8.52;;
74233;SDS011;62591;55.764;37.718;2023-03-20T08:51:28;19.42;;;7.35;;
74233;SDS011;62591;55.764;37.718;2023-03-20T08:53:57;15.60;;;6.93;;
74233;SDS011;62591;55.764;37.718;2023-03-20T08:56:25;12.73;;;6.82;;
74233;SDS011;62591;55.764;37.718;2023-03-20T08:58:54;12.60;;;7.07;;
74233;SDS011;62591;55.764;37.718;2023-03-20T09:01:26;13.50;;;7.40;;
74233;SDS011;62591;55.764;37.718;2023-03-20T09:04:14;28.10;;;10.40;;
74233;SDS011;62591;55.764;37.718;2023-03-20T09:06:42;20.67;;;10.00;;
74233;SDS011;62591;55.764;37.718;2023-03-20T09:09:12;30.85;;;8.15;;
74233;SDS011;62591;55.764;37.718;2023-03-20T09:11:41;17.02;;;9.07;;
74233;SDS011;62591;55.764;37.718;2023-03-20T09:14:10;12.88;;;6.75;;
74233;SDS011;62591;55.764;37.718;2023-03-20T09:16:40;13.82;;;6.38;;
74233;SDS011;62591;55.764;37.718;2023-03-20T09:19:09;15.82;;;6.63;;
74233;SDS011;62591;55.764;37.718;2023-03-20T09:21:37;17.48;;;5.72;;
74233;SDS011;62591;55.764;37.718;2023-03-20T09:24:06;12.15;;;5.30;;
74233;SDS011;62591;55.764;37.718;2023-03-20T09:26:35;17.17;;;5.97;;
74233;SDS011;62591;55.764;37.718;2023-03-20T09:29:04;11.43;;;5.07;;
74233;SDS011;62591;55.764;37.718;2023-03-20T09:31:33;11.13;;;5.93;;
74233;SDS011;62591;55.764;37.718;2023-03-20T09:34:03;13.70;;;6.38;;
74233;SDS011;62591;55.764;37.718;2023-03-20T09:36:32;12.27;;;6.40;;
74233;SDS011;62591;55.764;37.718;2023-03-20T09:39:01;11.77;;;5.90;;
74233;SDS011;62591;55.764;37.718;2023-03-20T09:41:30;16.80;;;6.03;;
74233;SDS011;62591;55.764;37.718;2023-03-20T09:44:28;11.27;;;5.82;;
74233;SDS011;62591;55.764;37.718;2023-03-20T09:49:52;16.70;;;7.50;;
74233;SDS011;62591;55.764;37.718;2023-03-20T09:52:33;14.93;;;7.75;;
74233;SDS011;62591;55.764;37.718;2023-03-20T09:55:05;15.90;;;11.68;;
74233;SDS011;62591;55.764;37.718;2023-03-20T09:57:40;14.95;;;8.27;;
74233;SDS011;62591;55.764;37.718;2023-03-20T10:00:12;12.80;;;7.95;;
74233;SDS011;62591;55.764;37.718;2023-03-20T10:02:45;12.98;;;5.80;;
74233;SDS011;62591;55.764;37.718;2023-03-20T10:05:20;10.52;;;6.07;;
74233;SDS011;62591;55.764;37.718;2023-03-20T10:07:52;12.07;;;5.38;;
74233;SDS011;62591;55.764;37.718;2023-03-20T10:10:29;13.73;;;5.90;;
74233;SDS011;62591;55.764;37.718;2023-03-20T10:13:09;11.52;;;4.82;;
74233;SDS011;62591;55.764;37.718;2023-03-20T10:15:54;11.70;;;6.82;;
74233;SDS011;62591;55.764;37.718;2023-03-20T10:18:28;11.40;;;5.63;;
74233;SDS011;62591;55.764;37.718;2023-03-20T10:21:08;10.30;;;5.13;;
74233;SDS011;62591;55.764;37.718;2023-03-20T10:26:17;13.90;;;6.53;;
74233;SDS011;62591;55.764;37.718;2023-03-20T10:28:48;12.25;;;6.60;;
74233;SDS011;62591;55.764;37.718;2023-03-20T10:33:58;8.77;;;4.72;;
74233;SDS011;62591;55.764;37.718;2023-03-20T10:36:42;13.32;;;6.32;;
74233;SDS011;62591;55.764;37.718;2023-03-20T10:39:24;8.93;;;4.47;;
74233;SDS011;62591;55.764;37.718;2023-03-20T10:42:09;13.50;;;5.60;;
74233;SDS011;62591;55.764;37.718;2023-03-20T10:44:45;13.23;;;5.45;;
74233;SDS011;62591;55.764;37.718;2023-03-20T10:47:17;11.65;;;5.32;;
74233;SDS011;62591;55.764;37.718;2023-03-20T10:49:52;17.40;;;6.30;;
74233;SDS011;62591;55.764;37.718;2023-03-20T10:52:25;12.18;;;5.95;;
74233;SDS011;62591;55.764;37.718;2023-03-20T10:54:57;11.90;;;5.97;;
74233;SDS011;62591;55.764;37.718;2023-03-20T10:57:30;10.80;;;5.80;;
74233;SDS011;62591;55.764;37.718;2023-03-20T11:00:03;13.30;;;6.18;;
74233;SDS011;62591;55.764;37.718;2023-03-20T11:02:36;12.35;;;6.03;;
74233;SDS011;62591;55.764;37.718;2023-03-20T11:05:07;14.52;;;6.53;;
74233;SDS011;62591;55.764;37.718;2023-03-20T11:07:48;10.45;;;5.57;;
74233;SDS011;62591;55.764;37.718;2023-03-20T11:12:55;11.35;;;5.72;;
74233;SDS011;62591;55.764;37.718;2023-03-20T11:15:30;13.55;;;5.35;;
74233;SDS011;62591;55.764;37.718;2023-03-20T11:18:00;10.82;;;5.30;;
74233;SDS011;62591;55.764;37.718;2023-03-20T11:20:31;8.07;;;5.05;;
74233;SDS011;62591;55.764;37.718;2023-03-20T11:23:04;9.80;;;5.53;;
74233;SDS011;62591;55.764;37.718;2023-03-20T11:25:35;10.50;;;5.00;;
74233;SDS011;62591;55.764;37.718;2023-03-20T11:28:20;12.73;;;5.65;;
74233;SDS011;62591;55.764;37.718;2023-03-20T11:30:56;12.63;;;5.55;;
74233;SDS011;62591;55.764;37.718;2023-03-20T11:33:31;8.68;;;5.40;;
74233;SDS011;62591;55.764;37.718;2023-03-20T11:36:09;9.98;;;5.85;;
74233;SDS011;62591;55.764;37.718;2023-03-20T11:38:44;8.70;;;5.75;;
74233;SDS011;62591;55.764;37.718;2023-03-20T11:41:17;13.32;;;5.20;;
74233;SDS011;62591;55.764;37.718;2023-03-20T11:43:49;10.25;;;4.80;;
74233;SDS011;62591;55.764;37.718;2023-03-20T11:46:18;13.35;;;5.38;;
74233;SDS011;62591;55.764;37.718;2023-03-20T11:49:00;12.80;;;5.65;;
74233;SDS011;62591;55.764;37.718;2023-03-20T11:51:33;11.40;;;6.10;;
74233;SDS011;62591;55.764;37.718;2023-03-20T11:54:05;10.15;;;5.30;;
74233;SDS011;62591;55.764;37.718;2023-03-20T11:56:50;12.65;;;5.90;;
74233;SDS011;62591;55.764;37.718;2023-03-20T11:59:20;12.00;;;5.40;;
74233;SDS011;62591;55.764;37.718;2023-03-20T12:01:50;14.35;;;5.68;;
74233;SDS011;62591;55.764;37.718;2023-03-20T12:04:24;10.05;;;5.68;;
74233;SDS011;62591;55.764;37.718;2023-03-20T12:06:55;9.77;;;5.40;;
74233;SDS011;62591;55.764;37.718;2023-03-20T12:09:38;12.27;;;5.88;;
74233;SDS011;62591;55.764;37.718;2023-03-20T12:12:14;10.32;;;5.32;;
74233;SDS011;62591;55.764;37.718;2023-03-20T12:14:51;15.20;;;6.13;;
74233;SDS011;62591;55.764;37.718;2023-03-20T12:17:33;12.90;;;6.15;;
74233;SDS011;62591;55.764;37.718;2023-03-20T12:20:14;12.18;;;5.78;;
74233;SDS011;62591;55.764;37.718;2023-03-20T12:22:52;9.65;;;5.00;;
74233;SDS011;62591;55.764;37.718;2023-03-20T12:25:28;14.02;;;5.25;;
74233;SDS011;62591;55.764;37.718;2023-03-20T12:28:05;12.48;;;6.50;;
74233;SDS011;62591;55.764;37.718;2023-03-20T12:30:47;12.18;;;5.50;;
74233;SDS011;62591;55.764;37.718;2023-03-20T12:33:28;10.93;;;5.50;;
74233;SDS011;62591;55.764;37.718;2023-03-20T12:36:11;10.65;;;5.95;;
74233;SDS011;62591;55.764;37.718;2023-03-20T12:38:42;11.55;;;5.82;;
74233;SDS011;62591;55.764;37.718;2023-03-20T12:41:14;13.35;;;5.15;;
74233;SDS011;62591;55.764;37.718;2023-03-20T12:43:59;11.45;;;5.53;;
74233;SDS011;62591;55.764;37.718;2023-03-20T12:46:42;10.82;;;5.00;;
74233;SDS011;62591;55.764;37.718;2023-03-20T12:51:53;10.02;;;5.35;;
74233;SDS011;62591;55.764;37.718;2023-03-20T12:54:35;9.65;;;5.03;;
74233;SDS011;62591;55.764;37.718;2023-03-20T12:57:19;14.55;;;5.38;;
74233;SDS011;62591;55.764;37.718;2023-03-20T13:00:03;11.35;;;4.90;;
74233;SDS011;62591;55.764;37.718;2023-03-20T13:02:47;12.07;;;5.43;;
74233;SDS011;62591;55.764;37.718;2023-03-20T13:05:29;12.52;;;5.25;;
74233;SDS011;62591;55.764;37.718;2023-03-20T13:08:21;7.32;;;4.50;;
74233;SDS011;62591;55.764;37.718;2023-03-20T13:11:09;10.15;;;5.45;;
74233;SDS011;62591;55.764;37.718;2023-03-20T13:13:52;9.57;;;5.07;;
74233;SDS011;62591;55.764;37.718;2023-03-20T13:16:28;10.82;;;4.80;;
74233;SDS011;62591;55.764;37.718;2023-03-20T13:19:06;11.55;;;4.80;;
74233;SDS011;62591;55.764;37.718;2023-03-20T13:21:44;9.75;;;4.90;;
74233;SDS011;62591;55.764;37.718;2023-03-20T13:24:27;9.43;;;5.40;;
74233;SDS011;62591;55.764;37.718;2023-03-20T13:27:05;10.77;;;5.70;;
74233;SDS011;62591;55.764;37.718;2023-03-20T13:29:45;11.35;;;4.70;;
74233;SDS011;62591;55.764;37.718;2023-03-20T13:32:21;11.90;;;5.30;;
74233;SDS011;62591;55.764;37.718;2023-03-20T13:35:09;14.80;;;5.28;;
74233;SDS011;62591;55.764;37.718;2023-03-20T13:37:49;9.73;;;5.00;;
74233;SDS011;62591;55.764;37.718;2023-03-20T13:40:22;14.75;;;5.32;;
74233;SDS011;62591;55.764;37.718;2023-03-20T13:42:56;10.20;;;5.35;;
74233;SDS011;62591;55.764;37.718;2023-03-20T13:45:34;8.88;;;5.43;;
74233;SDS011;62591;55.764;37.718;2023-03-20T13:48:08;12.35;;;4.78;;
74233;SDS011;62591;55.764;37.718;2023-03-20T13:50:50;10.98;;;5.28;;
74233;SDS011;62591;55.764;37.718;2023-03-20T13:53:28;15.32;;;5.13;;
74233;SDS011;62591;55.764;37.718;2023-03-20T13:56:07;12.70;;;4.90;;
74233;SDS011;62591;55.764;37.718;2023-03-20T13:58:58;18.20;;;6.00;;
74233;SDS011;62591;55.764;37.718;2023-03-20T14:01:41;11.20;;;4.68;;
74233;SDS011;62591;55.764;37.718;2023-03-20T14:04:18;13.40;;;6.25;;
74233;SDS011;62591;55.764;37.718;2023-03-20T14:06:51;11.25;;;5.40;;
74233;SDS011;62591;55.764;37.718;2023-03-20T14:09:31;10.25;;;5.05;;
74233;SDS011;62591;55.764;37.718;2023-03-20T14:12:03;9.60;;;5.53;;
74233;SDS011;62591;55.764;37.718;2023-03-20T14:14:39;11.80;;;5.32;;
74233;SDS011;62591;55.764;37.718;2023-03-20T14:17:18;11.80;;;5.50;;
74233;SDS011;62591;55.764;37.718;2023-03-20T14:19:48;14.13;;;6.10;;
74233;SDS011;62591;55.764;37.718;2023-03-20T14:22:20;13.52;;;6.60;;
74233;SDS011;62591;55.764;37.718;2023-03-20T14:24:55;14.02;;;6.45;;
74233;SDS011;62591;55.764;37.718;2023-03-20T14:27:27;14.68;;;6.82;;
74233;SDS011;62591;55.764;37.718;2023-03-20T14:33:07;11.93;;;5.72;;
74233;SDS011;62591;55.764;37.718;2023-03-20T14:38:44;16.45;;;7.05;;
74233;SDS011;62591;55.764;37.718;2023-03-20T14:41:22;16.92;;;8.20;;
74233;SDS011;62591;55.764;37.718;2023-03-20T14:43:57;13.98;;;7.47;;
74233;SDS011;62591;55.764;37.718;2023-03-20T14:46:38;13.40;;;7.10;;
74233;SDS011;62591;55.764;37.718;2023-03-20T14:57:56;23.58;;;8.00;;
74233;SDS011;62591;55.764;37.718;2023-03-20T15:00:32;16.90;;;8.07;;
74233;SDS011;62591;55.764;37.718;2023-03-20T15:03:05;14.18;;;6.53;;
74233;SDS011;62591;55.764;37.718;2023-03-20T15:05:36;12.05;;;6.40;;
74233;SDS011;62591;55.764;37.718;2023-03-20T15:08:08;16.45;;;6.35;;
74233;SDS011;62591;55.764;37.718;2023-03-20T15:10:43;13.68;;;6.75;;
74233;SDS011;62591;55.764;37.718;2023-03-20T15:13:15;14.23;;;6.22;;
74233;SDS011;62591;55.764;37.718;2023-03-20T15:15:51;13.27;;;6.18;;
74233;SDS011;62591;55.764;37.718;2023-03-20T15:18:21;13.82;;;6.57;;
74233;SDS011;62591;55.764;37.718;2023-03-20T15:20:52;11.98;;;6.43;;
74233;SDS011;62591;55.764;37.718;2023-03-20T15:23:24;17.60;;;6.75;;
74233;SDS011;62591;55.764;37.718;2023-03-20T15:25:52;13.88;;;6.82;;
74233;SDS011;62591;55.764;37.718;2023-03-20T15:28:22;16.73;;;6.43;;
74233;SDS011;62591;55.764;37.718;2023-03-20T15:30:54;16.65;;;7.28;;
74233;SDS011;62591;55.764;37.718;2023-03-20T15:33:26;19.00;;;6.82;;
74233;SDS011;62591;55.764;37.718;2023-03-20T15:36:05;12.15;;;6.45;;
74233;SDS011;62591;55.764;37.718;2023-03-20T15:38:37;18.30;;;6.25;;
74233;SDS011;62591;55.764;37.718;2023-03-20T15:41:06;17.52;;;6.63;;
74233;SDS011;62591;55.764;37.718;2023-03-20T15:43:35;18.63;;;6.65;;
74233;SDS011;62591;55.764;37.718;2023-03-20T15:46:04;13.63;;;6.28;;
74233;SDS011;62591;55.764;37.718;2023-03-20T15:48:46;18.63;;;6.65;;
74233;SDS011;62591;55.764;37.718;2023-03-20T15:51:16;16.15;;;6.35;;